sensor_id;sensor_type;location;lat;lon;timestamp;temperature;humidity
45735;DHT22;31446;49.632;8.328;2023-02-11T00:10:50;2.50;99.90
45735;DHT22;31446;49.632;8.328;2023-02-11T00:25:56;2.70;99.90
45735;DHT22;31446;49.632;8.328;2023-02-11T00:41:03;2.40;99.90
45735;DHT22;31446;49.632;8.328;2023-02-11T00:56:09;2.30;99.90
45735;DHT22;31446;49.632;8.328;2023-02-11T01:11:17;2.20;99.90
45735;DHT22;31446;49.632;8.328;2023-02-11T01:26:24;1.90;99.90
45735;DHT22;31446;49.632;8.328;2023-02-11T01:41:30;1.90;99.90
45735;DHT22;31446;49.632;8.328;2023-02-11T01:56:40;2.00;99.90
45735;DHT22;31446;49.632;8.328;2023-02-11T02:11:59;2.10;99.90
45735;DHT22;31446;49.632;8.328;2023-02-11T02:27:23;2.00;99.90
45735;DHT22;31446;49.632;8.328;2023-02-11T02:42:31;1.60;99.90
45735;DHT22;31446;49.632;8.328;2023-02-11T02:57:51;1.60;99.90
45735;DHT22;31446;49.632;8.328;2023-02-11T03:13:01;1.40;99.90
45735;DHT22;31446;49.632;8.328;2023-02-11T03:28:12;1.30;99.90
45735;DHT22;31446;49.632;8.328;2023-02-11T03:43:25;1.40;99.90
45735;DHT22;31446;49.632;8.328;2023-02-11T03:58:32;1.50;99.90
45735;DHT22;31446;49.632;8.328;2023-02-11T04:13:39;1.50;99.90
45735;DHT22;31446;49.632;8.328;2023-02-11T04:28:45;1.60;99.90
45735;DHT22;31446;49.632;8.328;2023-02-11T04:43:51;1.50;99.90
45735;DHT22;31446;49.632;8.328;2023-02-11T04:58:57;1.40;99.90
45735;DHT22;31446;49.632;8.328;2023-02-11T05:14:03;1.30;99.90
45735;DHT22;31446;49.632;8.328;2023-02-11T05:29:09;1.40;99.90
45735;DHT22;31446;49.632;8.328;2023-02-11T05:44:15;1.70;99.90
45735;DHT22;31446;49.632;8.328;2023-02-11T05:59:21;1.80;99.90
45735;DHT22;31446;49.632;8.328;2023-02-11T06:14:28;1.80;99.90
45735;DHT22;31446;49.632;8.328;2023-02-11T06:29:34;1.80;99.90
45735;DHT22;31446;49.632;8.328;2023-02-11T06:44:40;1.60;99.90
45735;DHT22;31446;49.632;8.328;2023-02-11T06:59:47;1.30;99.90
45735;DHT22;31446;49.632;8.328;2023-02-11T07:14:54;1.40;99.90
45735;DHT22;31446;49.632;8.328;2023-02-11T07:30:00;1.70;99.90
45735;DHT22;31446;49.632;8.328;2023-02-11T07:45:07;2.10;99.90
45735;DHT22;31446;49.632;8.328;2023-02-11T08:00:16;2.50;99.90
45735;DHT22;31446;49.632;8.328;2023-02-11T08:15:22;3.30;99.90
45735;DHT22;31446;49.632;8.328;2023-02-11T08:30:28;3.70;99.90
45735;DHT22;31446;49.632;8.328;2023-02-11T08:45:34;3.90;99.90
45735;DHT22;31446;49.632;8.328;2023-02-11T09:00:45;4.40;99.90
45735;DHT22;31446;49.632;8.328;2023-02-11T09:15:52;5.40;99.90
45735;DHT22;31446;49.632;8.328;2023-02-11T09:30:58;6.40;99.90
45735;DHT22;31446;49.632;8.328;2023-02-11T09:46:04;6.50;99.90
45735;DHT22;31446;49.632;8.328;2023-02-11T10:01:23;6.30;99.90
45735;DHT22;31446;49.632;8.328;2023-02-11T10:16:46;6.40;99.90
45735;DHT22;31446;49.632;8.328;2023-02-11T10:32:06;6.80;99.90
45735;DHT22;31446;49.632;8.328;2023-02-11T10:47:19;7.30;99.90
45735;DHT22;31446;49.632;8.328;2023-02-11T11:02:29;7.10;99.90
45735;DHT22;31446;49.632;8.328;2023-02-11T11:17:37;7.60;99.90
45735;DHT22;31446;49.632;8.328;2023-02-11T11:32:43;8.60;99.90
45735;DHT22;31446;49.632;8.328;2023-02-11T11:47:52;8.60;99.90
45735;DHT22;31446;49.632;8.328;2023-02-11T12:03:29;8.70;99.90
45735;DHT22;31446;49.632;8.328;2023-02-11T12:34:28;8.80;99.90
45735;DHT22;31446;49.632;8.328;2023-02-11T12:50:01;8.50;99.90
45735;DHT22;31446;49.632;8.328;2023-02-11T13:05:21;8.40;99.90
45735;DHT22;31446;49.632;8.328;2023-02-11T13:20:33;8.50;99.90
45735;DHT22;31446;49.632;8.328;2023-02-11T13:35:43;8.10;99.90
45735;DHT22;31446;49.632;8.328;2023-02-11T13:50:53;7.80;99.90
45735;DHT22;31446;49.632;8.328;2023-02-11T14:06:15;7.40;99.90
45735;DHT22;31446;49.632;8.328;2023-02-11T14:21:40;7.70;99.90
45735;DHT22;31446;49.632;8.328;2023-02-11T14:36:55;7.70;99.90
45735;DHT22;31446;49.632;8.328;2023-02-11T14:52:12;7.60;99.90
45735;DHT22;31446;49.632;8.328;2023-02-11T15:07:20;7.60;99.90
45735;DHT22;31446;49.632;8.328;2023-02-11T15:22:29;7.70;99.90
45735;DHT22;31446;49.632;8.328;2023-02-11T15:37:39;7.70;99.90
45735;DHT22;31446;49.632;8.328;2023-02-11T15:52:46;7.70;99.90
45735;DHT22;31446;49.632;8.328;2023-02-11T16:07:52;7.60;99.90
45735;DHT22;31446;49.632;8.328;2023-02-11T16:23:00;7.50;99.90
45735;DHT22;31446;49.632;8.328;2023-02-11T16:38:07;7.30;99.90
45735;DHT22;31446;49.632;8.328;2023-02-11T16:53:20;7.30;99.90
45735;DHT22;31446;49.632;8.328;2023-02-11T17:08:26;7.10;99.90
45735;DHT22;31446;49.632;8.328;2023-02-11T17:23:32;7.00;99.90
45735;DHT22;31446;49.632;8.328;2023-02-11T17:38:39;7.00;99.90
45735;DHT22;31446;49.632;8.328;2023-02-11T17:53:45;6.90;99.90
45735;DHT22;31446;49.632;8.328;2023-02-11T18:08:52;6.90;99.90
45735;DHT22;31446;49.632;8.328;2023-02-11T18:23:59;6.80;99.90
45735;DHT22;31446;49.632;8.328;2023-02-11T18:39:05;6.80;99.90
45735;DHT22;31446;49.632;8.328;2023-02-11T18:54:12;6.80;99.90
45735;DHT22;31446;49.632;8.328;2023-02-11T19:09:19;6.70;99.90
45735;DHT22;31446;49.632;8.328;2023-02-11T19:24:26;6.70;99.90
45735;DHT22;31446;49.632;8.328;2023-02-11T19:39:33;6.60;99.90
45735;DHT22;31446;49.632;8.328;2023-02-11T19:54:39;6.50;99.90
45735;DHT22;31446;49.632;8.328;2023-02-11T20:09:45;6.50;99.90
45735;DHT22;31446;49.632;8.328;2023-02-11T20:24:51;6.50;99.90
45735;DHT22;31446;49.632;8.328;2023-02-11T20:39:57;6.80;99.90
45735;DHT22;31446;49.632;8.328;2023-02-11T20:55:04;6.70;99.90
45735;DHT22;31446;49.632;8.328;2023-02-11T21:10:11;6.80;99.90
45735;DHT22;31446;49.632;8.328;2023-02-11T21:25:17;6.70;99.90
45735;DHT22;31446;49.632;8.328;2023-02-11T21:40:24;6.60;99.90
45735;DHT22;31446;49.632;8.328;2023-02-11T21:55:32;6.50;99.90
45735;DHT22;31446;49.632;8.328;2023-02-11T22:10:39;6.30;99.90
45735;DHT22;31446;49.632;8.328;2023-02-11T22:25:46;6.40;99.90
45735;DHT22;31446;49.632;8.328;2023-02-11T22:40:52;6.40;99.90
45735;DHT22;31446;49.632;8.328;2023-02-11T22:56:01;6.20;99.90
45735;DHT22;31446;49.632;8.328;2023-02-11T23:11:09;6.00;99.90
45735;DHT22;31446;49.632;8.328;2023-02-11T23:26:17;5.80;99.90
45735;DHT22;31446;49.632;8.328;2023-02-11T23:41:24;5.80;99.90
45735;DHT22;31446;49.632;8.328;2023-02-11T23:56:30;5.80;99.90
